Princeton Airport

CYDC · British Columbia, Kanada

METAR-Geschichte CYDC · Princeton Airport

Unten siehst du die METARs der letzten paar Tage. Wähle ein Jahr, um ältere METARs ab dem Jahr 2007 zu durchsuchen.

21. Juli 2024

Uhrzeit Code Wetter Temp. Sichtweite Wolkendecke Wind METAR/SPECI
15:00
V
38 °C 10 mi 26.000 ft 110° 110° 5 kt METAR CYDC 212200Z 11005KT 090V230 10SM SCT025 SCT100 SCT190 BKN260 38/03 A2996 RMK FU4CF1AC1CC1 CF TR AC TR LENT SLP123 DENSITY ALT 5400FT
14:00
V
37 °C 9 mi 28.000 ft Var Var 3 kt METAR CYDC 212100Z VRB03KT 9SM SCT025 SCT260 BKN280 37/04 A2998 RMK FU3CS1CI1 SLP128 DENSITY ALT 5200FT
13:00
M
35 °C 8 mi 2.500 ft 120° 120° 3 kt METAR CYDC 212000Z 12003KT 8SM BKN025 BKN190 35/05 A3000 RMK FU6AC1 AC TR SLP137 DENSITY ALT 5000FT
12:00
M
31 °C 8 mi 2.500 ft 160° 160° 3 kt METAR CYDC 211900Z 16003KT 070V200 8SM BKN025 BKN150 31/07 A3003 RMK FU7AC1 AC TR SLP148 DENSITY ALT 4500FT
11:00
M
27 °C 8 mi 2.300 ft 170° 170° 4 kt METAR CYDC 211800Z 17004KT 8SM BKN023 27/08 A3008 RMK FU7 SLP164 DENSITY ALT 4100FT
10:00
M
24 °C 8 mi 2.500 ft 200° 200° 2 kt METAR CYDC 211700Z 20002KT 8SM BKN025 24/07 A3010 RMK FU7 SLP174 DENSITY ALT 3700FT
09:00
V
20 °C 15 mi - 190° 190° 3 kt METAR CYDC 211600Z 19003KT 120V220 15SM SCT025 20/07 A3014 RMK FU3 SLP186 DENSITY ALT 3200FT
08:00
V
18 °C 15 mi - Var Var 2 kt METAR CYDC 211500Z VRB02KT 15SM FEW150 FEW260 18/07 A3015 RMK AS2CI1 CI TR HZ SLP191 DENSITY ALT 3000FT
07:00
V
15 °C 15 mi - 120° 120° 2 kt METAR CYDC 211400Z CCA 12002KT 15SM FEW150 15/07 A3016 RMK AS2 HZ SLP193 DENSITY ALT 2600FT
06:00
V
13 °C 15 mi - 360° 360° 0 kt METAR CYDC 211300Z 00000KT 15SM FEW260 13/05 A3015 RMK CI1 HZ SLP192

20. Juli 2024

Uhrzeit Code Wetter Temp. Sichtweite Wolkendecke Wind METAR/SPECI
18:00
V
36 °C 20 mi - 300° 300° 3 kt METAR CYDC 210100Z 30003KT 270V030 20SM FEW100 SCT260 36/04 A3003 RMK FU1CI3 FU/LAST STFD OBS/NEXT 21 1300Z SLP150 DENSITY ALT 5100FT
17:00
V
36 °C 20 mi - Var Var 2 kt METAR CYDC 210000Z VRB02KT 20SM FEW100 SCT260 36/04 A3004 RMK FU2CI2 SLP155 DENSITY ALT 5100FT
16:00
V
36 °C 25 mi - 130° 130° 7 kt METAR CYDC 202300Z 13007KT 110V190 25SM FEW100 SCT260 36/06 A3006 RMK FU2CI1 SLP161 DENSITY ALT 5100FT
15:00
V
36 °C 20 mi - 190° 190° 7 kt METAR CYDC 202200Z 19007KT 180V250 20SM FEW100 36/06 A3008 RMK FU1 SLP166 DENSITY ALT 5000FT
14:00
V
35 °C 25 mi - 190° 190° 5 kt METAR CYDC 202100Z 19005KT 25SM FEW100 35/06 A3010 RMK FU1 SLP175 DENSITY ALT 4900FT
13:00
V
33 °C 25 mi - 360° 360° 0 kt METAR CYDC 202000Z 00000KT 25SM SKC 33/07 A3012 RMK FU SLP182 DENSITY ALT 4700FT
12:00
V
29 °C 25 mi - 210° 210° 2 kt METAR CYDC 201900Z 21002KT 25SM SKC 29/09 A3015 RMK FU SLP193 DENSITY ALT 4200FT
11:00
V
25 °C 25 mi - 240° 240° 2 kt METAR CYDC 201800Z 24002KT 25SM FEW130 25/09 A3018 RMK AS1 AS TR FU SLP205 DENSITY ALT 3700FT
10:00
V
22 °C 25 mi - 360° 360° 0 kt METAR CYDC 201700Z 00000KT 25SM SKC 22/09 A3021 RMK FU SLP217 DENSITY ALT 3400FT
09:00
V
19 °C 25 mi - 120° 120° 3 kt METAR CYDC 201600Z 12003KT 25SM SKC 19/08 A3023 RMK FU SLP224 DENSITY ALT 3000FT
08:00
V
16 °C 25 mi - Var Var 2 kt METAR CYDC 201500Z VRB02KT 25SM FEW130 16/07 A3025 RMK AS1 AS TR FU SLP231 DENSITY ALT 2700FT
07:00
V
14 °C 25 mi - 360° 360° 0 kt METAR CYDC 201400Z 00000KT 25SM FEW130 14/08 A3026 RMK AS1 AS TR FU SLP234
06:00
V
12 °C 25 mi - 360° 360° 0 kt METAR CYDC 201300Z 00000KT 25SM FEW130 12/06 A3026 RMK AS1 FU SLP233

19. Juli 2024

Uhrzeit Code Wetter Temp. Sichtweite Wolkendecke Wind METAR/SPECI
18:00
V
30 °C 25 mi - 290° 290° 9 - 17 kt METAR CYDC 200100Z 29009G17KT 250V330 25SM FEW085TCU SCT120 30/10 A3009 RMK TCU1FU4 TCU TR LAST STFD OBS/ NEXT20 1300Z SLP173 DENSITY ALT 4400FT
17:00
V
32 °C 25 mi - 290° 290° 10 - 18 kt METAR CYDC 200000Z 29010G18KT 250V330 25SM FEW080TCU FEW090 SCT110 32/09 A3009 RMK TCU1AC1FU4 TCU TR AC TR SLP172 DENSITY ALT 4600FT
16:00
V
33 °C 25 mi - 280° 280° 7 kt METAR CYDC 192300Z 28007KT 240V030 25SM FEW080TCU FEW090 SCT110 33/08 A3009 RMK TCU1AC1FU4 TCU TR AC TR SLP171 DENSITY ALT 4700FT
15:00
V
33 °C 25 mi - 350° 350° 6 kt METAR CYDC 192200Z 35006KT 220V020 25SM FEW075TCU FEW085 SCT100 33/06 A3010 RMK TCU1AC1FU3 TCU TR AC TR SLP171 DENSITY ALT 4700FT
14:00
V
32 °C 25 mi - Var Var 7 - 18 kt METAR CYDC 192100Z VRB07G18KT 25SM FEW070 FEW080 32/06 A3010 RMK CU1AC1 CU TR AC TR FU S SLP173 DENSITY ALT 4600FT
13:00
V
32 °C 25 mi - 050° 050° 5 kt METAR CYDC 192000Z 05005KT 020V120 25SM FEW065 32/08 A3011 RMK CU1 CU TR FU S SLP174 DENSITY ALT 4500FT
12:00
V
30 °C 25 mi - 010° 010° 2 kt METAR CYDC 191900Z 01002KT 25SM FEW050 FEW060 30/09 A3012 RMK CF1CU1 CF TR CU TR FU S SLP179 DENSITY ALT 4300FT
11:00
V
27 °C 25 mi - Var Var 5 kt METAR CYDC 191800Z VRB05KT 25SM FEW045 FEW100 27/10 A3014 RMK CF1AC1 CF TR AC TR HZ SLP184 DENSITY ALT 4000FT
10:00
V
25 °C 25 mi - 180° 180° 3 kt METAR CYDC 191700Z 18003KT 25SM FEW100 FEW110 25/11 A3015 RMK AC1AC1 AC TR AC TR SLP189 DENSITY ALT 3800FT
09:00
V
23 °C 25 mi - Var Var 3 kt METAR CYDC 191600Z VRB03KT 25SM FEW090 23/10 A3016 RMK ACC1 ACC TR HZ SLP194 DENSITY ALT 3500FT
08:00
V
20 °C 25 mi - Var Var 2 kt METAR CYDC 191500Z VRB02KT 25SM FEW080 20/10 A3017 RMK ACC1 ACC TR HZ SLP196 DENSITY ALT 3100FT
07:00
V
18 °C 25 mi - 060° 060° 4 kt METAR CYDC 191400Z 06004KT 050V170 25SM FEW080 FEW110 18/10 A3016 RMK AC1AC1 AC TR AC TR HZ/ ACC ASOCTD SLP194 DENSITY ALT 2900FT
06:00
V
17 °C 25 mi - Var Var 2 kt METAR CYDC 191300Z VRB02KT 25SM FEW100 FEW260 17/09 A3015 RMK AC1CI1 AC TR CI TR FU SLP190 DENSITY ALT 2800FT
Eine Änderung melden